createdAt,value
2017-07-15T00:00:57.259Z,1015.9
2017-07-15T00:01:58.257Z,1015.9
2017-07-15T00:02:59.003Z,1015.9
2017-07-15T00:03:59.798Z,1015.9
2017-07-15T00:05:00.530Z,1015.9
2017-07-15T00:06:01.269Z,1016.0
2017-07-15T00:07:01.969Z,1016.0
2017-07-15T00:08:02.951Z,1016.0
2017-07-15T00:09:03.797Z,1016.0
2017-07-15T00:10:04.535Z,1016.0
2017-07-15T00:11:05.221Z,1016.1
2017-07-15T00:12:05.913Z,1016.0
2017-07-15T00:13:06.618Z,1016.1
2017-07-15T00:14:07.638Z,1016.1
2017-07-15T00:15:08.346Z,1016.1
2017-07-15T00:16:09.015Z,1016.1
2017-07-15T00:18:25.243Z,1016.2
2017-07-15T00:19:26.075Z,1016.2
2017-07-15T00:20:27.079Z,1016.2
2017-07-15T00:21:27.765Z,1016.2
2017-07-15T00:22:28.478Z,1016.2
2017-07-15T00:23:29.133Z,1016.2
2017-07-15T00:24:29.825Z,1016.2
2017-07-15T00:25:30.523Z,1016.2
2017-07-15T00:26:31.461Z,1016.2
2017-07-15T00:27:32.207Z,1016.2
2017-07-15T00:28:32.898Z,1016.2
2017-07-15T00:29:33.680Z,1016.2
2017-07-15T00:30:34.366Z,1016.2
2017-07-15T00:31:35.074Z,1016.2
2017-07-15T00:32:35.755Z,1016.2
2017-07-15T00:33:36.819Z,1016.2
2017-07-15T00:34:37.572Z,1016.2
2017-07-15T00:35:38.264Z,1016.2
2017-07-15T00:36:39.006Z,1016.2
2017-07-15T00:37:39.684Z,1016.2
2017-07-15T00:38:40.376Z,1016.2
2017-07-15T00:39:41.367Z,1016.2
2017-07-15T00:40:42.060Z,1016.2
2017-07-15T00:41:42.735Z,1016.2
2017-07-15T00:42:43.465Z,1016.2
2017-07-15T00:43:44.223Z,1016.2
2017-07-15T00:44:44.915Z,1016.2
2017-07-15T00:45:45.851Z,1016.2
2017-07-15T00:46:46.542Z,1016.2
2017-07-15T00:47:47.230Z,1016.2
2017-07-15T00:48:47.971Z,1016.2
2017-07-15T00:49:48.713Z,1016.2
2017-07-15T00:50:49.409Z,1016.2
2017-07-15T00:51:50.386Z,1016.2
2017-07-15T00:52:51.083Z,1016.2
2017-07-15T00:53:51.806Z,1016.2
2017-07-15T00:54:52.487Z,1016.2
2017-07-15T00:55:53.183Z,1016.2
2017-07-15T00:56:53.875Z,1016.2
2017-07-15T00:57:54.809Z,1016.2
2017-07-15T00:58:55.558Z,1016.2
2017-07-15T00:59:56.252Z,1016.1
2017-07-15T01:00:57.102Z,1016.2
2017-07-15T01:01:57.801Z,1016.2
2017-07-15T01:02:58.479Z,1016.2
2017-07-15T01:03:59.179Z,1016.3
2017-07-15T01:05:00.165Z,1016.2
2017-07-15T01:06:01.050Z,1016.3
2017-07-15T01:07:01.735Z,1016.3
2017-07-15T01:08:02.411Z,1016.3
2017-07-15T01:09:03.102Z,1016.2
2017-07-15T01:10:03.847Z,1016.3
2017-07-15T01:11:04.878Z,1016.3
2017-07-15T01:12:05.621Z,1016.3
2017-07-15T01:13:06.297Z,1016.3
2017-07-15T01:14:06.995Z,1016.3
2017-07-15T01:15:07.683Z,1016.3
2017-07-15T01:16:08.372Z,1016.3
2017-07-15T01:17:09.418Z,1016.3
2017-07-15T01:18:10.097Z,1016.3
2017-07-15T01:19:10.752Z,1016.3
2017-07-15T01:20:11.498Z,1016.3
2017-07-15T01:21:12.571Z,1016.3
2017-07-15T01:22:13.278Z,1016.3
2017-07-15T01:23:14.260Z,1016.3
2017-07-15T01:24:14.985Z,1016.3
2017-07-15T01:25:15.654Z,1016.3
2017-07-15T01:26:16.450Z,1016.3
2017-07-15T01:27:17.112Z,1016.3
2017-07-15T01:28:17.803Z,1016.3
2017-07-15T01:29:18.804Z,1016.3
2017-07-15T01:30:19.527Z,1016.3
2017-07-15T01:31:20.213Z,1016.3
2017-07-15T01:32:20.896Z,1016.4
2017-07-15T01:33:21.587Z,1016.3
2017-07-15T01:34:22.299Z,1016.4
2017-07-15T01:35:23.269Z,1016.4
2017-07-15T01:36:24.319Z,1016.4
2017-07-15T01:37:25.112Z,1016.4
2017-07-15T01:38:25.797Z,1016.4
2017-07-15T01:39:26.503Z,1016.4
2017-07-15T01:40:27.182Z,1016.4
2017-07-15T01:41:28.241Z,1016.4
2017-07-15T01:42:29.271Z,1016.4
2017-07-15T01:43:29.941Z,1016.4
2017-07-15T01:44:30.636Z,1016.4
2017-07-15T01:45:31.308Z,1016.4
2017-07-15T01:46:32.013Z,1016.4
2017-07-15T01:47:32.746Z,1016.4
2017-07-15T01:48:33.701Z,1016.4
2017-07-15T01:49:34.393Z,1016.4
2017-07-15T01:50:35.066Z,1016.4
2017-07-15T01:51:36.090Z,1016.4
2017-07-15T01:52:36.884Z,1016.4
2017-07-15T01:53:37.566Z,1016.4
2017-07-15T01:54:38.543Z,1016.4
2017-07-15T01:55:39.241Z,1016.4
2017-07-15T01:56:40.038Z,1016.4
2017-07-15T01:57:40.758Z,1016.4
2017-07-15T01:58:41.428Z,1016.3
2017-07-15T01:59:42.109Z,1016.4
2017-07-15T02:00:43.122Z,1016.4
2017-07-15T02:01:43.785Z,1016.4
2017-07-15T02:02:44.513Z,1016.4
2017-07-15T02:03:45.558Z,1016.4
2017-07-15T02:04:46.572Z,1016.4
2017-07-15T02:05:47.247Z,1016.4
2017-07-15T02:06:48.227Z,1016.4
2017-07-15T02:07:48.923Z,1016.5
2017-07-15T02:08:49.682Z,1016.4
2017-07-15T02:09:50.550Z,1016.4
2017-07-15T02:10:51.290Z,1016.4
2017-07-15T02:11:51.976Z,1016.4
2017-07-15T02:12:52.956Z,1016.4
2017-07-15T02:13:53.614Z,1016.4
2017-07-15T02:14:54.349Z,1016.4
2017-07-15T02:15:55.029Z,1016.4
2017-07-15T02:16:55.870Z,1016.4
2017-07-15T02:17:56.567Z,1016.4
2017-07-15T02:18:57.537Z,1016.5
2017-07-15T02:19:58.239Z,1016.5
2017-07-15T02:20:58.930Z,1016.5
2017-07-15T02:21:59.631Z,1016.4
2017-07-15T02:23:00.331Z,1016.4
2017-07-15T02:24:01.025Z,1016.4
2017-07-15T02:25:02.031Z,1016.5
2017-07-15T02:26:02.714Z,1016.4
2017-07-15T02:27:03.414Z,1016.4
2017-07-15T02:28:04.263Z,1016.4
2017-07-15T02:29:04.925Z,1016.4
2017-07-15T02:30:05.618Z,1016.5
2017-07-15T02:31:06.568Z,1016.5
2017-07-15T02:32:07.249Z,1016.5
2017-07-15T02:33:07.929Z,1016.4
2017-07-15T02:34:08.695Z,1016.4
2017-07-15T02:35:09.361Z,1016.4
2017-07-15T02:36:10.042Z,1016.4
2017-07-15T02:37:11.024Z,1016.4
2017-07-15T02:38:11.766Z,1016.4
2017-07-15T02:39:12.514Z,1016.5
2017-07-15T02:40:13.208Z,1016.5
2017-07-15T02:41:13.902Z,1016.5
2017-07-15T02:42:14.595Z,1016.5
2017-07-15T02:43:15.629Z,1016.5
2017-07-15T02:44:16.301Z,1016.5
2017-07-15T02:45:17.009Z,1016.5
2017-07-15T02:46:17.685Z,1016.5
2017-07-15T02:47:18.364Z,1016.5
2017-07-15T02:48:19.345Z,1016.5
2017-07-15T02:49:20.361Z,1016.5
2017-07-15T02:50:21.051Z,1016.5
2017-07-15T02:51:21.749Z,1016.5
2017-07-15T02:52:22.436Z,1016.5
2017-07-15T02:53:23.215Z,1016.5
2017-07-15T02:54:24.172Z,1016.5
2017-07-15T02:55:25.115Z,1016.5
2017-07-15T02:56:25.821Z,1016.5
2017-07-15T02:57:26.497Z,1016.6
2017-07-15T02:58:27.190Z,1016.6
2017-07-15T02:59:27.939Z,1016.6
2017-07-15T03:00:28.650Z,1016.6
2017-07-15T03:01:29.609Z,1016.6
2017-07-15T03:02:30.611Z,1016.6
2017-07-15T03:03:31.313Z,1016.6
2017-07-15T03:04:32.365Z,1016.6
2017-07-15T03:05:33.102Z,1016.6
2017-07-15T03:06:33.781Z,1016.6
2017-07-15T03:07:34.481Z,1016.6
2017-07-15T03:08:35.443Z,1016.6
2017-07-15T03:09:36.145Z,1016.6
2017-07-15T03:10:36.901Z,1016.6
2017-07-15T03:11:37.794Z,1016.6
2017-07-15T03:12:38.476Z,1016.6
2017-07-15T03:13:39.174Z,1016.6
2017-07-15T03:14:40.181Z,1016.6
2017-07-15T03:15:40.893Z,1016.7
2017-07-15T03:16:41.725Z,1016.7
2017-07-15T03:17:42.392Z,1016.7
2017-07-15T03:18:43.161Z,1016.7
2017-07-15T03:19:43.913Z,1016.7
2017-07-15T03:20:44.613Z,1016.7
2017-07-15T03:21:45.584Z,1016.7
2017-07-15T03:22:46.283Z,1016.7
2017-07-15T03:23:46.965Z,1016.7
2017-07-15T03:24:47.682Z,1016.7
2017-07-15T03:25:48.341Z,1016.7
2017-07-15T03:26:49.383Z,1016.7
2017-07-15T03:27:50.116Z,1016.7
2017-07-15T03:28:50.794Z,1016.7
2017-07-15T03:29:51.516Z,1016.8
2017-07-15T03:30:52.230Z,1016.7
2017-07-15T03:31:53.096Z,1016.8
2017-07-15T03:32:53.852Z,1016.7
2017-07-15T03:33:54.801Z,1016.7
2017-07-15T03:34:55.545Z,1016.8
2017-07-15T03:35:56.217Z,1016.8
2017-07-15T03:36:57.230Z,1016.8
2017-07-15T03:37:57.909Z,1016.8
2017-07-15T03:38:58.614Z,1016.8
2017-07-15T03:39:59.601Z,1016.8
2017-07-15T03:41:00.568Z,1016.8
2017-07-15T03:42:01.218Z,1016.8
2017-07-15T03:43:01.906Z,1016.9
2017-07-15T03:44:02.645Z,1016.9
2017-07-15T03:45:03.352Z,1016.9
2017-07-15T03:46:04.073Z,1017.0
2017-07-15T03:47:05.077Z,1017.0
2017-07-15T03:48:05.783Z,1017.0
2017-07-15T03:49:06.481Z,1017.0
2017-07-15T03:50:07.153Z,1017.0
2017-07-15T03:51:07.887Z,1017.0
2017-07-15T03:52:08.590Z,1017.1
2017-07-15T03:53:09.545Z,1017.1
2017-07-15T03:54:10.246Z,1017.1
2017-07-15T03:55:10.915Z,1017.1
2017-07-15T03:56:11.917Z,1017.1
2017-07-15T03:57:12.615Z,1017.1
2017-07-15T03:58:13.303Z,1017.1
2017-07-15T03:59:14.336Z,1017.1
2017-07-15T04:00:15.002Z,1017.1
2017-07-15T04:01:16.222Z,1017.1
2017-07-15T04:02:16.921Z,1017.2
2017-07-15T04:03:17.627Z,1017.1
2017-07-15T04:04:18.304Z,1017.2
2017-07-15T04:05:19.329Z,1017.2
2017-07-15T04:06:20.034Z,1017.1
2017-07-15T04:07:20.952Z,1017.2
2017-07-15T04:08:21.613Z,1017.2
2017-07-15T04:09:23.326Z,1017.2
2017-07-15T04:10:23.988Z,1017.2
2017-07-15T04:11:25.032Z,1017.2
2017-07-15T04:12:25.742Z,1017.2
2017-07-15T04:13:26.462Z,1017.2
2017-07-15T04:14:27.143Z,1017.3
2017-07-15T04:15:27.872Z,1017.2
2017-07-15T04:16:28.874Z,1017.3
2017-07-15T04:17:29.925Z,1017.3
2017-07-15T04:18:30.617Z,1017.3
2017-07-15T04:19:31.290Z,1017.3
2017-07-15T04:20:32.034Z,1017.3
2017-07-15T04:21:32.797Z,1017.3
2017-07-15T04:22:33.472Z,1017.3
2017-07-15T04:23:34.480Z,1017.3
2017-07-15T04:24:35.156Z,1017.4
2017-07-15T04:25:35.849Z,1017.3
2017-07-15T04:26:36.585Z,1017.4
2017-07-15T04:27:37.306Z,1017.3
2017-07-15T04:28:38.061Z,1017.4
2017-07-15T04:29:38.823Z,1017.4
2017-07-15T04:30:39.805Z,1017.4
2017-07-15T04:31:40.532Z,1017.4
2017-07-15T04:32:41.197Z,1017.4
2017-07-15T04:33:42.125Z,1017.4
2017-07-15T04:34:42.853Z,1017.5
2017-07-15T04:35:43.587Z,1017.5
2017-07-15T04:36:44.548Z,1017.5
2017-07-15T04:37:45.236Z,1017.5
2017-07-15T04:38:45.924Z,1017.5
2017-07-15T04:39:46.705Z,1017.5
2017-07-15T04:40:47.428Z,1017.5
2017-07-15T04:41:48.099Z,1017.5
2017-07-15T04:42:49.121Z,1017.5
2017-07-15T04:43:49.790Z,1017.5
2017-07-15T04:44:50.494Z,1017.6
2017-07-15T04:45:51.281Z,1017.6
2017-07-15T04:46:51.984Z,1017.6
2017-07-15T04:47:52.730Z,1017.6
2017-07-15T04:48:53.783Z,1017.6
2017-07-15T04:49:54.578Z,1017.6
2017-07-15T04:50:55.359Z,1017.6
2017-07-15T04:51:56.056Z,1017.6
2017-07-15T04:52:56.777Z,1017.6
2017-07-15T04:53:57.453Z,1017.6
2017-07-15T04:54:58.160Z,1017.6
2017-07-15T04:55:58.954Z,1017.6
2017-07-15T04:56:59.652Z,1017.6
2017-07-15T04:58:00.375Z,1017.6
2017-07-15T04:59:01.032Z,1017.7
2017-07-15T05:00:01.817Z,1017.7
2017-07-15T05:01:02.828Z,1017.7
2017-07-15T05:02:04.006Z,1017.7
2017-07-15T05:03:04.723Z,1017.7
2017-07-15T05:04:05.437Z,1017.6
2017-07-15T05:05:06.462Z,1017.6
2017-07-15T05:06:07.099Z,1017.7
2017-07-15T05:07:08.101Z,1017.6
2017-07-15T05:08:08.781Z,1017.6
2017-07-15T05:09:09.467Z,1017.6
2017-07-15T05:10:10.216Z,1017.6
2017-07-15T05:11:10.918Z,1017.6
2017-07-15T05:12:11.679Z,1017.6
2017-07-15T05:13:12.486Z,1017.6
2017-07-15T05:14:13.529Z,1017.6
2017-07-15T05:15:14.222Z,1017.6
2017-07-15T05:16:14.964Z,1017.6
2017-07-15T05:17:15.972Z,1017.6
2017-07-15T05:18:16.846Z,1017.7
2017-07-15T05:19:17.561Z,1017.7
2017-07-15T05:20:18.537Z,1017.7
2017-07-15T05:21:19.278Z,1017.7
2017-07-15T05:22:19.983Z,1017.7
2017-07-15T05:23:20.879Z,1017.7
2017-07-15T05:24:21.568Z,1017.7
2017-07-15T05:25:22.314Z,1017.7
2017-07-15T05:26:23.266Z,1017.7
2017-07-15T05:27:23.946Z,1017.7
2017-07-15T05:28:24.964Z,1017.7
2017-07-15T05:29:25.645Z,1017.7
2017-07-15T05:30:26.358Z,1017.7
2017-07-15T05:31:27.106Z,1017.8
2017-07-15T05:32:28.034Z,1017.7
2017-07-15T05:33:28.832Z,1017.7
2017-07-15T05:34:29.535Z,1017.7
2017-07-15T05:35:30.233Z,1017.7
2017-07-15T05:36:30.917Z,1017.7
2017-07-15T05:37:31.654Z,1017.7
2017-07-15T05:38:32.653Z,1017.7
2017-07-15T05:39:33.369Z,1017.6
2017-07-15T05:40:34.105Z,1017.6
2017-07-15T05:41:34.871Z,1017.6
2017-07-15T05:42:35.558Z,1017.6
2017-07-15T05:43:36.313Z,1017.7
2017-07-15T05:44:37.303Z,1017.7
2017-07-15T05:45:38.026Z,1017.7
2017-07-15T05:46:38.751Z,1017.7
2017-07-15T05:47:39.419Z,1017.7
2017-07-15T05:48:40.161Z,1017.7
2017-07-15T05:49:40.856Z,1017.7
2017-07-15T05:50:41.854Z,1017.7
2017-07-15T05:51:42.867Z,1017.7
2017-07-15T05:52:43.578Z,1017.7
2017-07-15T05:53:44.483Z,1017.6
2017-07-15T05:54:45.173Z,1017.7
2017-07-15T05:55:45.968Z,1017.6
2017-07-15T05:56:46.872Z,1017.6
2017-07-15T05:57:47.595Z,1017.7
2017-07-15T05:58:48.259Z,1017.7
2017-07-15T05:59:48.950Z,1017.6
2017-07-15T06:00:49.700Z,1017.7
2017-07-15T06:01:50.387Z,1017.7
2017-07-15T06:02:51.375Z,1017.7
2017-07-15T06:03:52.198Z,1017.7
2017-07-15T06:04:52.943Z,1017.7
2017-07-15T06:05:53.674Z,1017.7
2017-07-15T06:06:54.368Z,1017.7
2017-07-15T06:07:55.089Z,1017.7
2017-07-15T06:08:56.211Z,1017.7
2017-07-15T06:09:57.056Z,1017.7
2017-07-15T06:10:57.757Z,1017.7
2017-07-15T06:11:58.492Z,1017.7
2017-07-15T06:12:59.187Z,1017.8
2017-07-15T06:13:59.887Z,1017.8
2017-07-15T06:15:00.874Z,1017.8
2017-07-15T06:16:01.599Z,1017.9
2017-07-15T06:17:02.406Z,1017.8
2017-07-15T06:18:03.149Z,1017.9
2017-07-15T06:19:03.903Z,1017.9
2017-07-15T06:20:04.984Z,1017.9
2017-07-15T06:21:05.917Z,1017.9
2017-07-15T06:22:06.646Z,1017.9
2017-07-15T06:23:07.345Z,1017.9
2017-07-15T06:24:08.082Z,1017.9
2017-07-15T06:25:08.837Z,1017.9
2017-07-15T06:26:09.529Z,1017.9
2017-07-15T06:27:10.329Z,1017.9
2017-07-15T06:28:11.337Z,1017.9
2017-07-15T06:29:12.076Z,1018.0
2017-07-15T06:30:12.782Z,1018.0
2017-07-15T06:31:13.485Z,1018.0
2017-07-15T06:32:14.400Z,1018.0
2017-07-15T06:33:15.134Z,1018.0
2017-07-15T06:34:16.146Z,1018.0
2017-07-15T06:35:16.887Z,1018.0
2017-07-15T06:36:17.596Z,1018.0
2017-07-15T06:37:18.387Z,1018.0
2017-07-15T06:38:19.050Z,1018.0
2017-07-15T06:39:19.782Z,1018.0
2017-07-15T06:40:20.490Z,1018.0
2017-07-15T06:41:21.426Z,1018.1
2017-07-15T06:42:22.147Z,1018.1
2017-07-15T06:43:22.819Z,1018.1
2017-07-15T06:44:23.902Z,1018.1
2017-07-15T06:45:24.649Z,1018.1
2017-07-15T06:46:25.684Z,1018.2
2017-07-15T06:47:26.698Z,1018.2
2017-07-15T06:48:27.365Z,1018.2
2017-07-15T06:49:28.199Z,1018.2
2017-07-15T06:50:28.969Z,1018.2
2017-07-15T06:51:29.636Z,1018.1
2017-07-15T06:52:30.314Z,1018.1
2017-07-15T06:53:31.366Z,1018.1
2017-07-15T06:54:32.229Z,1018.1
2017-07-15T06:55:32.942Z,1018.2
2017-07-15T06:56:33.642Z,1018.2
2017-07-15T06:57:34.342Z,1018.2
2017-07-15T06:58:35.033Z,1018.2
2017-07-15T06:59:36.111Z,1018.2
2017-07-15T07:00:36.872Z,1018.2
2017-07-15T07:01:37.557Z,1018.2
2017-07-15T07:02:38.376Z,1018.2
2017-07-15T07:03:39.201Z,1018.2
2017-07-15T07:04:41.101Z,1018.2
2017-07-15T07:05:41.775Z,1018.3
2017-07-15T07:06:42.454Z,1018.3
2017-07-15T07:07:43.136Z,1018.3
2017-07-15T07:08:43.890Z,1018.3
2017-07-15T07:09:44.623Z,1018.3
2017-07-15T07:10:45.575Z,1018.3
2017-07-15T07:11:46.361Z,1018.3
2017-07-15T07:12:47.065Z,1018.3
2017-07-15T07:13:47.797Z,1018.3
2017-07-15T07:14:48.605Z,1018.4
2017-07-15T07:15:49.301Z,1018.4
2017-07-15T07:16:50.385Z,1018.4
2017-07-15T07:17:51.058Z,1018.4
2017-07-15T07:18:51.883Z,1018.4
2017-07-15T07:19:52.704Z,1018.4
2017-07-15T07:20:53.359Z,1018.4
2017-07-15T07:21:54.088Z,1018.5
2017-07-15T07:22:55.077Z,1018.5
2017-07-15T07:23:56.307Z,1018.5
2017-07-15T07:24:56.991Z,1018.5
2017-07-15T07:25:57.701Z,1018.5
2017-07-15T07:26:58.394Z,1018.5
2017-07-15T07:27:59.098Z,1018.5
2017-07-15T07:28:59.975Z,1018.5
2017-07-15T07:30:00.989Z,1018.5
2017-07-15T07:31:01.685Z,1018.5
2017-07-15T07:32:02.390Z,1018.5
2017-07-15T07:33:03.092Z,1018.5
2017-07-15T07:34:03.888Z,1018.5
2017-07-15T07:35:04.587Z,1018.5
2017-07-15T07:36:05.579Z,1018.5
2017-07-15T07:37:06.283Z,1018.5
2017-07-15T07:38:06.966Z,1018.5
2017-07-15T07:39:07.724Z,1018.5
2017-07-15T07:40:08.399Z,1018.5
2017-07-15T07:41:09.081Z,1018.5
2017-07-15T07:42:10.030Z,1018.5
2017-07-15T07:43:10.742Z,1018.5
2017-07-15T07:44:11.440Z,1018.5
2017-07-15T07:45:12.135Z,1018.5
2017-07-15T07:46:12.869Z,1018.5
2017-07-15T07:47:13.577Z,1018.6
2017-07-15T07:48:14.504Z,1018.5
2017-07-15T07:49:15.221Z,1018.6
2017-07-15T07:50:15.896Z,1018.6
2017-07-15T07:51:16.703Z,1018.5
2017-07-15T07:52:17.437Z,1018.5
2017-07-15T07:53:18.123Z,1018.5
2017-07-15T07:54:18.813Z,1018.5
2017-07-15T07:55:19.766Z,1018.5
2017-07-15T07:56:20.517Z,1018.5
2017-07-15T07:57:21.231Z,1018.5
2017-07-15T07:58:21.904Z,1018.5
2017-07-15T07:59:22.599Z,1018.5
2017-07-15T08:00:23.299Z,1018.5
2017-07-15T08:01:24.296Z,1018.5
2017-07-15T08:02:25.054Z,1018.4
2017-07-15T08:03:25.763Z,1018.5
2017-07-15T08:04:26.446Z,1018.5
2017-07-15T08:05:27.161Z,1018.5
2017-07-15T08:06:27.846Z,1018.5
2017-07-15T08:07:28.798Z,1018.5
2017-07-15T08:08:29.491Z,1018.5
2017-07-15T08:09:30.199Z,1018.5
2017-07-15T08:10:30.895Z,1018.4
2017-07-15T08:11:31.571Z,1018.4
2017-07-15T08:12:32.321Z,1018.5
2017-07-15T08:13:33.269Z,1018.5
2017-07-15T08:14:34.038Z,1018.5
2017-07-15T08:15:34.700Z,1018.5
2017-07-15T08:16:35.658Z,1018.5
2017-07-15T08:17:36.361Z,1018.5
2017-07-15T08:18:37.335Z,1018.5
2017-07-15T08:19:38.267Z,1018.5
2017-07-15T08:20:39.034Z,1018.5
2017-07-15T08:21:39.738Z,1018.5
2017-07-15T08:22:40.477Z,1018.6
2017-07-15T08:23:41.226Z,1018.5
2017-07-15T08:24:42.221Z,1018.5
2017-07-15T08:25:43.222Z,1018.6
2017-07-15T08:26:43.937Z,1018.6
2017-07-15T08:27:44.617Z,1018.6
2017-07-15T08:28:45.315Z,1018.5
2017-07-15T08:29:46.000Z,1018.5
2017-07-15T08:30:46.803Z,1018.5
2017-07-15T08:31:47.772Z,1018.6
2017-07-15T08:32:48.479Z,1018.6
2017-07-15T08:33:49.141Z,1018.6
2017-07-15T08:34:49.840Z,1018.6
2017-07-15T08:35:50.995Z,1018.6
2017-07-15T08:36:51.722Z,1018.6
2017-07-15T08:37:52.569Z,1018.6
2017-07-15T08:38:53.591Z,1018.5
2017-07-15T08:39:54.296Z,1018.5
2017-07-15T08:40:55.026Z,1018.5
2017-07-15T08:41:55.739Z,1018.5
2017-07-15T08:42:56.658Z,1018.5
2017-07-15T08:43:57.369Z,1018.5
2017-07-15T08:44:58.413Z,1018.6
2017-07-15T08:45:59.116Z,1018.6
2017-07-15T08:46:59.802Z,1018.6
2017-07-15T08:48:00.539Z,1018.6
2017-07-15T08:49:01.230Z,1018.6
2017-07-15T08:50:01.984Z,1018.6
2017-07-15T08:51:02.652Z,1018.6
2017-07-15T08:52:03.451Z,1018.6
2017-07-15T08:53:04.311Z,1018.6
2017-07-15T08:54:05.005Z,1018.6
2017-07-15T08:55:05.912Z,1018.6
2017-07-15T08:56:06.858Z,1018.6
2017-07-15T08:57:07.601Z,1018.7
2017-07-15T08:58:08.261Z,1018.6
2017-07-15T08:59:08.973Z,1018.6
2017-07-15T09:00:09.771Z,1018.6
2017-07-15T09:01:10.481Z,1018.6
2017-07-15T09:02:11.424Z,1018.6
2017-07-15T09:03:12.217Z,1018.6
2017-07-15T09:04:12.934Z,1018.6
2017-07-15T09:05:13.611Z,1018.5
2017-07-15T09:06:14.455Z,1018.5
2017-07-15T09:07:15.143Z,1018.6
2017-07-15T09:08:15.885Z,1018.6
2017-07-15T09:09:16.861Z,1018.6
2017-07-15T09:10:17.548Z,1018.6
2017-07-15T09:11:18.350Z,1018.7
2017-07-15T09:12:19.053Z,1018.7
2017-07-15T09:13:19.739Z,1018.6
2017-07-15T09:14:20.507Z,1018.6
2017-07-15T09:15:21.489Z,1018.7
2017-07-15T09:16:22.232Z,1018.7
2017-07-15T09:17:22.909Z,1018.7
2017-07-15T09:18:23.657Z,1018.7
2017-07-15T09:19:24.368Z,1018.7
2017-07-15T09:20:25.044Z,1018.7
2017-07-15T09:21:26.049Z,1018.7
2017-07-15T09:22:26.750Z,1018.6
2017-07-15T09:23:27.509Z,1018.7
2017-07-15T09:24:28.202Z,1018.7
2017-07-15T09:25:28.949Z,1018.7
2017-07-15T09:26:29.646Z,1018.7
2017-07-15T09:27:30.591Z,1018.6
2017-07-15T09:28:31.333Z,1018.7
2017-07-15T09:29:32.022Z,1018.7
2017-07-15T09:30:33.013Z,1018.7
2017-07-15T09:31:33.660Z,1018.7
2017-07-15T09:32:34.397Z,1018.7
2017-07-15T09:33:35.747Z,1018.7
2017-07-15T09:34:36.474Z,1018.6
2017-07-15T09:35:37.177Z,1018.8
2017-07-15T09:36:37.907Z,1018.7
2017-07-15T09:37:38.653Z,1018.7
2017-07-15T09:38:39.517Z,1018.7
2017-07-15T09:39:40.493Z,1018.7
2017-07-15T09:40:41.195Z,1018.7
2017-07-15T09:41:41.911Z,1018.7
2017-07-15T09:42:42.596Z,1018.7
2017-07-15T09:43:43.346Z,1018.7
2017-07-15T09:44:44.065Z,1018.7
2017-07-15T09:45:45.015Z,1018.7
2017-07-15T09:46:45.772Z,1018.7
2017-07-15T09:47:46.579Z,1018.8
2017-07-15T09:48:47.241Z,1018.8
2017-07-15T09:49:47.920Z,1018.7
2017-07-15T09:50:48.641Z,1018.7
2017-07-15T09:51:49.349Z,1018.7
2017-07-15T09:52:50.270Z,1018.7
2017-07-15T09:53:51.261Z,1018.7
2017-07-15T09:54:51.951Z,1018.7
2017-07-15T09:55:52.719Z,1018.6
2017-07-15T09:56:53.390Z,1018.7
2017-07-15T09:57:54.096Z,1018.6
2017-07-15T09:58:55.037Z,1018.7
2017-07-15T09:59:55.738Z,1018.7
2017-07-15T10:00:56.440Z,1018.6
2017-07-15T10:01:57.120Z,1018.6
2017-07-15T10:02:57.945Z,1018.6
2017-07-15T10:03:58.608Z,1018.6
2017-07-15T10:04:59.610Z,1018.7
2017-07-15T10:06:00.327Z,1018.7
2017-07-15T10:07:01.026Z,1018.7
2017-07-15T10:08:01.767Z,1018.7
2017-07-15T10:09:02.451Z,1018.6
2017-07-15T10:10:03.144Z,1018.6
2017-07-15T10:11:04.166Z,1018.6
2017-07-15T10:12:04.828Z,1018.6
2017-07-15T10:13:05.686Z,1018.7
2017-07-15T10:14:06.368Z,1018.6
2017-07-15T10:15:07.084Z,1018.7
2017-07-15T10:16:07.813Z,1018.7
2017-07-15T10:17:08.731Z,1018.7
2017-07-15T10:18:09.574Z,1018.7
2017-07-15T10:19:10.324Z,1018.7
2017-07-15T10:20:11.072Z,1018.7
2017-07-15T10:21:11.771Z,1018.7
2017-07-15T10:22:12.452Z,1018.7
2017-07-15T10:23:13.141Z,1018.7
2017-07-15T10:24:14.147Z,1018.8
2017-07-15T10:25:14.856Z,1018.7
2017-07-15T10:26:15.557Z,1018.7
2017-07-15T10:27:16.297Z,1018.7
2017-07-15T10:28:17.040Z,1018.7
2017-07-15T10:29:17.713Z,1018.7
2017-07-15T10:30:18.822Z,1018.7
2017-07-15T10:31:19.493Z,1018.8
2017-07-15T10:32:20.197Z,1018.8
2017-07-15T10:33:20.895Z,1018.8
2017-07-15T10:34:21.581Z,1018.8
2017-07-15T10:35:22.579Z,1018.8
2017-07-15T10:36:23.275Z,1018.9
2017-07-15T10:37:24.286Z,1018.8
2017-07-15T10:38:24.987Z,1018.8
2017-07-15T10:39:25.689Z,1018.8
2017-07-15T10:40:26.489Z,1018.8
2017-07-15T10:41:27.187Z,1018.7
2017-07-15T10:42:27.885Z,1018.7
2017-07-15T10:43:28.841Z,1018.7
2017-07-15T10:44:29.597Z,1018.7
2017-07-15T10:45:30.502Z,1018.6
2017-07-15T10:46:31.196Z,1018.6
2017-07-15T10:47:31.994Z,1018.7
2017-07-15T10:48:32.716Z,1018.7
2017-07-15T10:49:33.724Z,1018.7
2017-07-15T10:50:34.526Z,1018.7
2017-07-15T10:51:35.224Z,1018.7
2017-07-15T10:52:35.919Z,1018.7
2017-07-15T10:53:36.687Z,1018.7
2017-07-15T10:54:37.402Z,1018.6
2017-07-15T10:55:38.406Z,1018.7
2017-07-15T10:56:39.087Z,1018.6
2017-07-15T10:57:39.781Z,1018.6
2017-07-15T10:58:40.484Z,1018.6
2017-07-15T10:59:41.168Z,1018.6
2017-07-15T11:00:41.929Z,1018.6
2017-07-15T11:01:42.923Z,1018.6
2017-07-15T11:02:43.616Z,1018.6
2017-07-15T11:03:44.378Z,1018.7
2017-07-15T11:04:45.114Z,1018.7
2017-07-15T11:05:45.966Z,1018.7
2017-07-15T11:06:46.647Z,1018.7
2017-07-15T11:07:47.350Z,1018.7
2017-07-15T11:08:48.347Z,1018.6
2017-07-15T11:09:49.060Z,1018.7
2017-07-15T11:10:49.962Z,1018.7
2017-07-15T11:11:50.651Z,1018.7
2017-07-15T11:12:51.384Z,1018.7
2017-07-15T11:13:52.102Z,1018.7
2017-07-15T11:14:53.164Z,1018.7
2017-07-15T11:15:53.918Z,1018.7
2017-07-15T11:16:54.596Z,1018.7
2017-07-15T11:17:55.648Z,1018.7
2017-07-15T11:18:56.312Z,1018.7
2017-07-15T11:19:57.009Z,1018.6
2017-07-15T11:20:57.805Z,1018.7
2017-07-15T11:21:59.417Z,1018.7
2017-07-15T11:23:00.508Z,1018.7
2017-07-15T11:24:01.208Z,1018.6
2017-07-15T11:25:02.018Z,1018.6
2017-07-15T11:26:02.689Z,1018.6
2017-07-15T11:27:03.370Z,1018.6
2017-07-15T11:28:04.095Z,1018.6
2017-07-15T11:29:04.816Z,1018.6
2017-07-15T11:30:05.521Z,1018.6
2017-07-15T11:32:24.650Z,1018.6
2017-07-15T11:33:25.664Z,1018.6
2017-07-15T11:34:26.350Z,1018.6
2017-07-15T11:35:27.105Z,1018.6
2017-07-15T11:36:27.943Z,1018.6
2017-07-15T11:37:28.639Z,1018.6
2017-07-15T11:38:29.341Z,1018.7
2017-07-15T11:39:30.098Z,1018.6
2017-07-15T11:40:30.817Z,1018.7
2017-07-15T11:41:31.695Z,1018.7
2017-07-15T11:42:32.673Z,1018.7
2017-07-15T11:43:33.623Z,1018.7
2017-07-15T11:44:34.356Z,1018.7
2017-07-15T11:45:35.152Z,1018.7
2017-07-15T11:46:35.965Z,1018.8
2017-07-15T11:47:36.987Z,1018.8
2017-07-15T11:48:37.647Z,1018.8
2017-07-15T11:49:38.838Z,1018.7
2017-07-15T11:51:55.056Z,1018.8
2017-07-15T11:52:55.747Z,1018.8
2017-07-15T11:53:56.564Z,1018.8
2017-07-15T11:54:57.332Z,1018.8
2017-07-15T11:55:58.368Z,1018.8
2017-07-15T11:56:59.177Z,1018.8
2017-07-15T11:57:59.880Z,1018.8
2017-07-15T11:59:00.614Z,1018.8
2017-07-15T12:00:01.344Z,1018.8
2017-07-15T12:01:02.089Z,1018.8
2017-07-15T12:02:03.076Z,1018.8
2017-07-15T12:03:04.128Z,1018.8
2017-07-15T12:04:04.848Z,1018.8
2017-07-15T12:05:05.488Z,1018.8
2017-07-15T12:06:06.199Z,1018.8
2017-07-15T12:07:06.910Z,1018.7
2017-07-15T12:08:07.877Z,1018.7
2017-07-15T12:09:08.555Z,1018.8
2017-07-15T12:10:09.273Z,1018.7
2017-07-15T12:11:09.987Z,1018.8
2017-07-15T12:12:10.814Z,1018.7
2017-07-15T12:13:11.844Z,1018.7
2017-07-15T12:14:12.871Z,1018.7
2017-07-15T12:15:13.597Z,1018.7
2017-07-15T12:16:14.283Z,1018.7
2017-07-15T12:17:15.296Z,1018.7
2017-07-15T12:18:16.095Z,1018.7
2017-07-15T12:19:16.752Z,1018.6
2017-07-15T12:20:17.720Z,1018.7
2017-07-15T12:21:18.414Z,1018.7
2017-07-15T12:22:19.497Z,1018.7
2017-07-15T12:23:20.189Z,1018.8
2017-07-15T12:24:20.982Z,1018.7
2017-07-15T12:25:21.702Z,1018.7
2017-07-15T12:26:22.712Z,1018.7
2017-07-15T12:27:23.397Z,1018.7
2017-07-15T12:28:24.124Z,1018.7
2017-07-15T12:29:24.985Z,1018.6
2017-07-15T12:30:25.758Z,1018.6
2017-07-15T12:31:26.448Z,1018.6
2017-07-15T12:32:27.443Z,1018.7
2017-07-15T12:33:28.435Z,1018.7
2017-07-15T12:34:29.393Z,1018.7
2017-07-15T12:35:30.073Z,1018.7
2017-07-15T12:36:30.745Z,1018.7
2017-07-15T12:37:31.460Z,1018.7
2017-07-15T12:38:32.442Z,1018.6
2017-07-15T12:39:33.211Z,1018.7
2017-07-15T12:40:33.993Z,1018.6
2017-07-15T12:41:34.745Z,1018.6
2017-07-15T12:42:35.416Z,1018.7